createdAt,value
2019-01-24T00:01:10.449Z,25.20
2019-01-24T00:03:40.089Z,27.83
2019-01-24T00:06:09.733Z,28.10
2019-01-24T00:08:39.473Z,29.00
2019-01-24T00:11:09.418Z,26.83
2019-01-24T00:13:39.041Z,28.70
2019-01-24T00:16:09.055Z,27.00
2019-01-24T00:18:38.704Z,24.63
2019-01-24T00:21:08.400Z,26.53
2019-01-24T00:23:38.157Z,28.97
2019-01-24T00:26:08.103Z,27.53
2019-01-24T00:28:37.797Z,27.53
2019-01-24T00:31:07.488Z,26.30
2019-01-24T00:33:37.112Z,29.10
2019-01-24T00:36:06.993Z,26.73
2019-01-24T00:38:36.624Z,26.60
2019-01-24T00:41:06.484Z,25.37
2019-01-24T00:43:36.265Z,25.13
2019-01-24T00:46:06.293Z,26.40
2019-01-24T00:48:36.178Z,24.47
2019-01-24T00:51:05.820Z,25.10
2019-01-24T00:53:35.502Z,23.83
2019-01-24T00:56:05.210Z,26.20
2019-01-24T00:58:34.840Z,24.60
2019-01-24T01:01:04.789Z,24.17
2019-01-24T01:03:34.796Z,24.43
2019-01-24T01:06:04.795Z,23.50
2019-01-24T01:08:34.497Z,23.33
2019-01-24T01:11:04.199Z,22.90
2019-01-24T01:13:33.857Z,21.70
2019-01-24T01:16:03.647Z,21.77
2019-01-24T01:18:33.419Z,23.60
2019-01-24T01:21:03.320Z,22.13
2019-01-24T01:23:33.014Z,20.20
2019-01-24T01:26:02.749Z,23.17
2019-01-24T01:28:32.600Z,22.40
2019-01-24T01:31:03.070Z,19.97
2019-01-24T01:33:32.984Z,21.50
2019-01-24T01:36:04.428Z,22.40
2019-01-24T01:38:34.101Z,21.47
2019-01-24T01:41:04.036Z,21.27
2019-01-24T01:43:33.756Z,21.80
2019-01-24T01:46:03.453Z,20.90
2019-01-24T01:48:33.077Z,22.03
2019-01-24T01:51:02.779Z,22.27
2019-01-24T01:53:32.701Z,21.73
2019-01-24T01:56:02.642Z,21.93
2019-01-24T01:58:32.292Z,21.50
2019-01-24T02:01:01.929Z,22.40
2019-01-24T02:03:31.577Z,22.23
2019-01-24T02:06:01.532Z,22.97
2019-01-24T02:08:31.575Z,21.50
2019-01-24T02:11:01.391Z,21.20
2019-01-24T02:13:31.213Z,21.17
2019-01-24T02:16:00.805Z,22.70
2019-01-24T02:18:30.384Z,21.47
2019-01-24T02:21:00.040Z,21.67
2019-01-24T02:23:29.617Z,19.87
2019-01-24T02:25:59.249Z,22.10
2019-01-24T02:28:29.095Z,23.20
2019-01-24T02:30:58.968Z,22.20
2019-01-24T02:33:28.610Z,24.10
2019-01-24T02:35:58.312Z,23.43
2019-01-24T02:38:27.923Z,24.43
2019-01-24T02:40:57.510Z,22.90
2019-01-24T02:43:27.088Z,24.80
2019-01-24T02:45:56.909Z,23.17
2019-01-24T02:48:26.545Z,22.37
2019-01-24T02:50:56.457Z,23.53
2019-01-24T02:53:26.085Z,22.30
2019-01-24T02:55:55.781Z,22.27
2019-01-24T02:58:25.404Z,22.93
2019-01-24T03:00:55.091Z,22.40
2019-01-24T03:03:25.032Z,19.50
2019-01-24T03:05:54.664Z,20.87
2019-01-24T03:08:24.364Z,20.47
2019-01-24T03:10:54.015Z,20.47
2019-01-24T03:13:23.765Z,21.10
2019-01-24T03:15:53.375Z,21.00
2019-01-24T03:18:23.008Z,18.87
2019-01-24T03:20:52.665Z,20.47
2019-01-24T03:23:22.375Z,20.07
2019-01-24T03:25:52.084Z,19.23
2019-01-24T03:28:21.930Z,20.53
2019-01-24T03:30:51.546Z,18.83
2019-01-24T03:33:21.254Z,20.33
2019-01-24T03:35:50.861Z,20.83
2019-01-24T03:38:20.553Z,20.30
2019-01-24T03:40:50.326Z,20.40
2019-01-24T03:43:19.983Z,20.47
2019-01-24T03:45:49.600Z,21.93
2019-01-24T03:48:19.217Z,21.30
2019-01-24T03:50:49.123Z,20.90
2019-01-24T03:53:18.819Z,21.17
2019-01-24T03:55:48.445Z,22.93
2019-01-24T03:58:18.193Z,21.30
2019-01-24T04:00:47.813Z,20.07
2019-01-24T04:03:17.480Z,20.23
2019-01-24T04:05:47.249Z,19.77
2019-01-24T04:08:16.905Z,18.70
2019-01-24T04:10:46.526Z,18.07
2019-01-24T04:13:16.175Z,19.47
2019-01-24T04:15:45.977Z,20.63
2019-01-24T04:18:15.988Z,20.13
2019-01-24T04:20:45.639Z,21.03
2019-01-24T04:23:15.601Z,19.57
2019-01-24T04:25:45.273Z,19.93
2019-01-24T04:28:14.904Z,20.40
2019-01-24T04:30:44.749Z,20.60
2019-01-24T04:33:14.462Z,20.27
2019-01-24T04:35:44.221Z,20.67
2019-01-24T04:38:13.937Z,20.00
2019-01-24T04:40:43.553Z,20.63
2019-01-24T04:43:13.346Z,20.40
2019-01-24T04:45:43.184Z,20.10
2019-01-24T04:48:12.855Z,20.70
2019-01-24T04:50:42.627Z,20.70
2019-01-24T04:53:12.299Z,19.60
2019-01-24T04:55:42.036Z,20.53
2019-01-24T04:58:11.838Z,20.80
2019-01-24T05:00:41.446Z,20.40
2019-01-24T05:03:11.059Z,21.67
2019-01-24T05:05:40.961Z,19.97
2019-01-24T05:08:10.597Z,20.20
2019-01-24T05:10:40.252Z,20.73
2019-01-24T05:13:09.936Z,22.37
2019-01-24T05:15:39.598Z,21.87
2019-01-24T05:18:09.202Z,22.13
2019-01-24T05:20:39.137Z,21.23
2019-01-24T05:23:09.344Z,20.90
2019-01-24T05:25:38.968Z,21.07
2019-01-24T05:28:08.673Z,20.83
2019-01-24T05:30:38.374Z,20.60
2019-01-24T05:33:08.137Z,20.37
2019-01-24T05:35:37.776Z,19.70
2019-01-24T05:38:07.481Z,21.00
2019-01-24T05:40:37.177Z,19.67
2019-01-24T05:43:07.041Z,20.10
2019-01-24T05:45:36.901Z,20.85
2019-01-24T05:48:07.044Z,23.90
2019-01-24T05:50:37.668Z,23.12
2019-01-24T05:53:07.612Z,22.33
2019-01-24T05:55:37.713Z,21.23
2019-01-24T05:58:07.447Z,21.03
2019-01-24T06:00:43.400Z,21.82
2019-01-24T06:03:13.236Z,20.60
2019-01-24T06:05:42.860Z,20.73
2019-01-24T06:08:12.751Z,21.20
2019-01-24T06:10:42.612Z,20.83
2019-01-24T06:13:12.275Z,22.20
2019-01-24T06:15:41.985Z,21.20
2019-01-24T06:18:11.619Z,21.87
2019-01-24T06:20:41.518Z,21.20
2019-01-24T06:23:11.345Z,20.77
2019-01-24T06:25:41.049Z,20.93
2019-01-24T06:28:11.064Z,21.53
2019-01-24T06:30:40.948Z,20.53
2019-01-24T06:33:10.639Z,21.47
2019-01-24T06:35:40.345Z,20.20
2019-01-24T06:38:09.962Z,20.77
2019-01-24T06:40:39.987Z,20.73
2019-01-24T06:43:09.965Z,20.60
2019-01-24T06:45:40.088Z,22.10
2019-01-24T06:48:09.788Z,20.70
2019-01-24T06:50:39.529Z,20.33
2019-01-24T06:53:09.459Z,19.97
2019-01-24T06:55:39.344Z,22.37
2019-01-24T06:58:08.984Z,21.47
2019-01-24T07:00:38.652Z,21.40
2019-01-24T07:03:08.345Z,22.87
2019-01-24T07:05:38.205Z,21.33
2019-01-24T07:08:08.177Z,22.03
2019-01-24T07:10:37.947Z,20.87
2019-01-24T07:13:07.896Z,21.90
2019-01-24T07:15:38.268Z,21.00
2019-01-24T07:18:07.997Z,21.30
2019-01-24T07:20:38.176Z,20.80
2019-01-24T07:23:08.113Z,20.60
2019-01-24T07:25:37.911Z,20.75
2019-01-24T07:28:07.548Z,21.57
2019-01-24T07:30:37.964Z,19.42
2019-01-24T07:33:08.042Z,22.37
2019-01-24T07:35:38.001Z,21.20
2019-01-24T07:38:08.748Z,21.50
2019-01-24T07:40:38.474Z,20.43
2019-01-24T07:43:08.154Z,22.03
2019-01-24T07:45:40.609Z,21.23
2019-01-24T07:48:10.446Z,20.93
2019-01-24T07:50:40.117Z,19.47
2019-01-24T07:53:10.060Z,22.87
2019-01-24T07:55:39.762Z,21.70
2019-01-24T07:58:09.667Z,21.87
2019-01-24T08:00:39.393Z,23.03
2019-01-24T08:03:09.266Z,22.27
2019-01-24T08:05:39.029Z,21.70
2019-01-24T08:08:08.811Z,21.73
2019-01-24T08:10:38.488Z,22.23
2019-01-24T08:13:08.221Z,22.87
2019-01-24T08:15:38.448Z,21.80
2019-01-24T08:18:08.320Z,22.63
2019-01-24T08:20:38.453Z,20.88
2019-01-24T08:23:08.328Z,29.85
2019-01-24T08:25:38.570Z,25.25
2019-01-24T08:28:08.193Z,23.70
2019-01-24T08:30:38.445Z,22.27
2019-01-24T08:33:08.129Z,22.30
2019-01-24T08:35:38.524Z,22.05
2019-01-24T08:38:08.309Z,22.37
2019-01-24T08:40:38.577Z,21.93
2019-01-24T08:43:08.502Z,22.33
2019-01-24T08:45:38.564Z,22.17
2019-01-24T08:48:08.456Z,21.90
2019-01-24T08:50:38.457Z,20.60
2019-01-24T08:53:08.461Z,21.30
2019-01-24T08:55:40.546Z,21.68
2019-01-24T08:58:10.576Z,23.40
2019-01-24T09:00:41.586Z,22.87
2019-01-24T09:03:11.585Z,21.13
2019-01-24T09:05:41.541Z,21.97
2019-01-24T09:08:11.242Z,22.20
2019-01-24T09:10:42.429Z,22.10
2019-01-24T09:13:12.165Z,21.70
2019-01-24T09:15:41.792Z,22.47
2019-01-24T09:18:11.501Z,21.40
2019-01-24T09:20:41.441Z,22.57
2019-01-24T09:23:11.062Z,21.37
2019-01-24T09:25:40.760Z,23.80
2019-01-24T09:28:14.828Z,25.30
2019-01-24T09:30:42.169Z,22.00
2019-01-24T09:33:12.023Z,22.80
2019-01-24T09:35:42.128Z,22.90
2019-01-24T09:38:11.748Z,22.00
2019-01-24T09:40:41.630Z,22.10
2019-01-24T09:43:11.324Z,22.53
2019-01-24T09:45:40.948Z,24.03
2019-01-24T09:48:10.717Z,23.30
2019-01-24T09:50:40.371Z,23.50
2019-01-24T09:53:10.058Z,23.03
2019-01-24T09:55:40.251Z,23.33
2019-01-24T09:58:10.152Z,22.83
2019-01-24T10:00:39.891Z,23.00
2019-01-24T10:03:09.800Z,22.37
2019-01-24T10:05:39.778Z,22.30
2019-01-24T10:08:09.437Z,23.27
2019-01-24T10:10:39.553Z,23.03
2019-01-24T10:13:09.316Z,22.67
2019-01-24T10:15:39.243Z,23.60
2019-01-24T10:18:09.204Z,23.03
2019-01-24T10:20:39.129Z,21.90
2019-01-24T10:23:08.798Z,23.23
2019-01-24T10:25:39.462Z,22.95
2019-01-24T10:28:09.787Z,23.43
2019-01-24T10:30:43.180Z,22.17
2019-01-24T10:33:11.709Z,23.60
2019-01-24T10:35:41.647Z,24.33
2019-01-24T10:38:11.382Z,24.03
2019-01-24T10:40:41.077Z,24.10
2019-01-24T10:43:10.783Z,23.30
2019-01-24T10:45:40.553Z,23.20
2019-01-24T10:48:10.433Z,24.70
2019-01-24T10:50:40.150Z,24.53
2019-01-24T10:53:10.009Z,25.83
2019-01-24T10:55:39.760Z,25.80
2019-01-24T10:58:09.602Z,25.50
2019-01-24T11:00:40.938Z,25.40
2019-01-24T11:03:13.033Z,25.93
2019-01-24T11:05:43.172Z,24.63
2019-01-24T11:08:13.137Z,23.20
2019-01-24T11:10:43.141Z,24.07
2019-01-24T11:13:13.081Z,22.70
2019-01-24T11:15:43.102Z,24.27
2019-01-24T11:18:12.818Z,24.63
2019-01-24T11:20:42.618Z,24.17
2019-01-24T11:23:12.241Z,23.70
2019-01-24T11:25:41.987Z,25.90
2019-01-24T11:28:11.673Z,26.97
2019-01-24T11:30:41.422Z,26.07
2019-01-24T11:33:11.184Z,26.03
2019-01-24T11:35:41.299Z,26.10
2019-01-24T11:38:11.113Z,25.87
2019-01-24T11:40:40.752Z,26.93
2019-01-24T11:43:10.973Z,26.93
2019-01-24T11:45:42.633Z,25.57
2019-01-24T11:48:12.414Z,25.67
2019-01-24T11:50:42.239Z,23.63
2019-01-24T11:53:11.884Z,23.80
2019-01-24T11:55:41.523Z,22.90
2019-01-24T11:58:11.386Z,23.30
2019-01-24T12:00:48.997Z,23.20
2019-01-24T12:03:18.745Z,23.63
2019-01-24T12:05:48.942Z,20.60
2019-01-24T12:08:18.740Z,22.60
2019-01-24T12:10:48.480Z,24.27
2019-01-24T12:13:18.533Z,22.83
2019-01-24T12:15:49.185Z,24.40
2019-01-24T12:18:18.817Z,23.20
2019-01-24T12:20:48.797Z,21.53
2019-01-24T12:23:18.417Z,21.30
2019-01-24T12:25:48.134Z,22.97
2019-01-24T12:28:18.008Z,22.83
2019-01-24T12:30:48.060Z,24.10
2019-01-24T12:33:17.693Z,23.77
2019-01-24T12:35:47.371Z,23.33
2019-01-24T12:38:17.488Z,23.33
2019-01-24T12:40:47.118Z,23.57
2019-01-24T12:43:17.298Z,23.03
2019-01-24T12:45:47.011Z,23.03
2019-01-24T12:48:16.640Z,23.60
2019-01-24T12:50:46.274Z,24.60
2019-01-24T12:53:16.169Z,26.23
2019-01-24T12:55:46.044Z,24.73
2019-01-24T12:58:15.701Z,23.83
2019-01-24T13:00:45.949Z,24.70
2019-01-24T13:03:15.683Z,25.10
2019-01-24T13:05:45.452Z,25.87
2019-01-24T13:08:15.136Z,23.37
2019-01-24T13:10:44.913Z,24.40
2019-01-24T13:13:14.765Z,24.50
2019-01-24T13:15:44.461Z,21.80
2019-01-24T13:18:14.413Z,23.07
2019-01-24T13:20:44.117Z,22.87
2019-01-24T13:23:13.816Z,24.17
2019-01-24T13:25:43.560Z,23.47
2019-01-24T13:28:13.200Z,24.03
2019-01-24T13:30:43.189Z,24.53
2019-01-24T13:33:13.161Z,23.40
2019-01-24T13:35:42.790Z,25.30
2019-01-24T13:38:12.626Z,22.63
2019-01-24T13:40:42.302Z,23.77
2019-01-24T13:43:11.945Z,23.80
2019-01-24T13:45:41.652Z,23.37
2019-01-24T13:48:11.285Z,23.23
2019-01-24T13:50:41.342Z,24.50
2019-01-24T13:53:12.128Z,22.53
2019-01-24T13:55:41.793Z,22.97
2019-01-24T13:58:11.569Z,22.43
2019-01-24T14:00:41.950Z,22.20
2019-01-24T14:03:17.854Z,23.70
2019-01-24T14:05:47.712Z,23.00
2019-01-24T14:08:17.337Z,23.53
2019-01-24T14:10:47.046Z,22.33
2019-01-24T14:13:17.077Z,22.60
2019-01-24T14:15:46.694Z,24.07
2019-01-24T14:18:16.773Z,22.97
2019-01-24T14:20:46.490Z,22.77
2019-01-24T14:23:16.124Z,24.17
2019-01-24T14:25:45.832Z,22.90
2019-01-24T14:28:15.897Z,24.90
2019-01-24T14:30:45.857Z,23.77
2019-01-24T14:33:15.546Z,25.40
2019-01-24T14:35:45.333Z,23.23
2019-01-24T14:38:15.426Z,23.90
2019-01-24T14:40:45.096Z,23.23
2019-01-24T14:43:14.716Z,23.60
2019-01-24T14:45:44.351Z,24.07
2019-01-24T14:48:13.968Z,23.10
2019-01-24T14:50:43.601Z,23.43
2019-01-24T14:53:13.217Z,28.13
2019-01-24T14:55:42.926Z,30.63
2019-01-24T14:58:12.541Z,32.27
2019-01-24T15:00:54.713Z,33.93
2019-01-24T15:03:24.333Z,30.77
2019-01-24T15:05:54.956Z,29.37
2019-01-24T15:08:24.862Z,26.50
2019-01-24T15:10:54.570Z,26.53
2019-01-24T15:13:24.365Z,25.67
2019-01-24T15:15:53.997Z,25.07
2019-01-24T15:18:23.658Z,22.33
2019-01-24T15:20:53.361Z,22.60
2019-01-24T15:23:22.972Z,23.80
2019-01-24T15:25:52.601Z,23.57
2019-01-24T15:28:22.313Z,22.40
2019-01-24T15:30:52.342Z,22.13
2019-01-24T15:33:21.961Z,21.90
2019-01-24T15:35:51.591Z,22.23
2019-01-24T15:38:21.234Z,22.07
2019-01-24T15:40:50.866Z,23.00
2019-01-24T15:43:20.468Z,21.53
2019-01-24T15:45:50.105Z,21.10
2019-01-24T15:48:20.104Z,21.07
2019-01-24T15:50:49.748Z,20.67
2019-01-24T15:53:19.477Z,22.13
2019-01-24T15:55:49.434Z,20.77
2019-01-24T15:58:19.605Z,20.90
2019-01-24T16:00:49.602Z,24.47
2019-01-24T16:03:19.508Z,24.13
2019-01-24T16:05:49.560Z,24.10
2019-01-24T16:08:19.180Z,23.17
2019-01-24T16:10:49.057Z,24.77
2019-01-24T16:13:18.704Z,24.23
2019-01-24T16:15:48.492Z,23.03
2019-01-24T16:18:18.108Z,22.07
2019-01-24T16:20:47.799Z,22.33
2019-01-24T16:23:17.412Z,21.07
2019-01-24T16:25:47.111Z,20.93
2019-01-24T16:28:17.132Z,23.03
2019-01-24T16:30:46.749Z,23.47
2019-01-24T16:33:16.765Z,22.00
2019-01-24T16:35:46.475Z,21.37
2019-01-24T16:38:16.086Z,20.97
2019-01-24T16:40:45.794Z,21.70
2019-01-24T16:43:15.492Z,20.87
2019-01-24T16:45:45.104Z,20.23
2019-01-24T16:48:15.800Z,20.33
2019-01-24T16:50:45.453Z,20.77
2019-01-24T16:53:15.129Z,20.10
2019-01-24T16:55:44.741Z,20.27
2019-01-24T16:58:14.439Z,22.07
2019-01-24T17:00:50.877Z,23.33
2019-01-24T17:03:20.577Z,21.63
2019-01-24T17:05:50.623Z,21.50
2019-01-24T17:08:20.413Z,21.90
2019-01-24T17:10:50.037Z,20.90
2019-01-24T17:13:19.741Z,21.00
2019-01-24T17:15:49.597Z,20.47
2019-01-24T17:18:19.340Z,20.90
2019-01-24T17:20:50.194Z,21.47
2019-01-24T17:23:19.831Z,21.87
2019-01-24T17:25:49.776Z,21.13
2019-01-24T17:28:19.520Z,22.50
2019-01-24T17:30:49.144Z,22.57
2019-01-24T17:33:18.773Z,22.23
2019-01-24T17:35:48.472Z,21.90
2019-01-24T17:38:23.701Z,21.77
2019-01-24T17:40:49.424Z,20.70
2019-01-24T17:43:19.612Z,20.73
2019-01-24T17:45:50.398Z,21.47
2019-01-24T17:48:20.393Z,21.10
2019-01-24T17:50:50.289Z,22.90
2019-01-24T17:53:19.966Z,21.60
2019-01-24T17:55:49.712Z,18.77
2019-01-24T17:58:19.585Z,18.70
2019-01-24T18:00:51.449Z,18.33
2019-01-24T18:03:21.070Z,19.53
2019-01-24T18:05:51.088Z,18.17
2019-01-24T18:08:20.868Z,18.63
2019-01-24T18:10:50.650Z,17.57
2019-01-24T18:13:20.713Z,18.07
2019-01-24T18:15:50.353Z,18.83
2019-01-24T18:18:20.953Z,18.67
2019-01-24T18:20:50.695Z,18.77
2019-01-24T18:23:20.329Z,18.17
2019-01-24T18:25:50.170Z,19.27
2019-01-24T18:28:19.805Z,19.13
2019-01-24T18:30:49.615Z,23.60
2019-01-24T18:33:19.233Z,25.90
2019-01-24T18:35:49.220Z,21.83
2019-01-24T18:38:18.930Z,21.30
2019-01-24T18:40:48.827Z,20.77
2019-01-24T18:43:24.509Z,21.37
2019-01-24T18:45:56.957Z,19.43
2019-01-24T18:48:27.024Z,20.07
2019-01-24T18:50:57.121Z,19.63
2019-01-24T18:53:26.965Z,20.30
2019-01-24T18:55:56.751Z,20.73
2019-01-24T18:58:26.444Z,20.13
2019-01-24T19:00:56.076Z,19.20
2019-01-24T19:03:25.688Z,19.20
2019-01-24T19:05:55.557Z,20.73
2019-01-24T19:08:25.613Z,20.93
2019-01-24T19:10:55.301Z,19.83
2019-01-24T19:13:25.005Z,19.80
2019-01-24T19:15:55.050Z,18.83
2019-01-24T19:18:24.853Z,18.90
2019-01-24T19:20:54.507Z,18.43
2019-01-24T19:23:24.489Z,17.43
2019-01-24T19:25:54.425Z,18.93
2019-01-24T19:28:24.417Z,17.80
2019-01-24T19:30:54.052Z,18.73
2019-01-24T19:33:23.733Z,18.40
2019-01-24T19:36:00.297Z,18.47
2019-01-24T19:38:25.734Z,17.63
2019-01-24T19:40:55.372Z,18.50
2019-01-24T19:43:24.988Z,16.93
2019-01-24T19:45:54.708Z,18.60
2019-01-24T19:48:24.393Z,18.70
2019-01-24T19:50:54.205Z,18.63
2019-01-24T19:53:23.813Z,18.57
2019-01-24T19:55:53.473Z,19.63
2019-01-24T19:58:23.246Z,26.27
2019-01-24T20:00:53.121Z,20.93
2019-01-24T20:03:22.840Z,20.90
2019-01-24T20:05:53.500Z,20.57
2019-01-24T20:08:23.301Z,19.10
2019-01-24T20:10:53.002Z,23.50
2019-01-24T20:13:23.041Z,20.50
2019-01-24T20:15:52.736Z,20.50
2019-01-24T20:18:22.352Z,20.67
2019-01-24T20:20:52.002Z,18.73
2019-01-24T20:23:21.749Z,16.93
2019-01-24T20:25:51.449Z,17.20
2019-01-24T20:28:21.076Z,18.57
2019-01-24T20:30:50.699Z,18.07
2019-01-24T20:33:20.387Z,21.37
2019-01-24T20:35:52.666Z,20.07
2019-01-24T20:38:22.586Z,18.03
2019-01-24T20:40:52.311Z,17.20
2019-01-24T20:43:22.341Z,18.37
2019-01-24T20:45:52.050Z,19.50
2019-01-24T20:48:21.676Z,16.77
2019-01-24T20:50:51.305Z,18.03
2019-01-24T20:53:20.929Z,18.53
2019-01-24T20:55:50.935Z,19.00
2019-01-24T20:58:20.689Z,18.67
2019-01-24T21:00:51.182Z,19.30
2019-01-24T21:03:21.123Z,18.30
2019-01-24T21:05:50.737Z,18.60
2019-01-24T21:08:20.455Z,18.87
2019-01-24T21:10:50.097Z,19.87
2019-01-24T21:13:19.729Z,18.33
2019-01-24T21:15:49.386Z,19.30
2019-01-24T21:18:19.255Z,18.37
2019-01-24T21:20:48.887Z,17.90
2019-01-24T21:23:18.504Z,18.73
2019-01-24T21:25:48.116Z,18.00
2019-01-24T21:28:17.745Z,18.43
2019-01-24T21:30:47.369Z,18.20
2019-01-24T21:33:17.002Z,18.37
2019-01-24T21:35:46.873Z,17.47
2019-01-24T21:38:16.933Z,17.90
2019-01-24T21:40:46.565Z,17.90
2019-01-24T21:43:16.525Z,18.63
2019-01-24T21:45:46.553Z,17.67
2019-01-24T21:48:16.261Z,18.07
2019-01-24T21:50:45.876Z,17.90
2019-01-24T21:53:15.671Z,18.50
2019-01-24T21:55:45.283Z,17.93
2019-01-24T21:58:15.073Z,19.03
2019-01-24T22:00:45.898Z,18.43
2019-01-24T22:03:15.593Z,18.47
2019-01-24T22:05:45.347Z,19.07
2019-01-24T22:08:15.273Z,19.77
2019-01-24T22:10:45.036Z,18.80
2019-01-24T22:13:14.664Z,18.70
2019-01-24T22:15:44.294Z,19.80
2019-01-24T22:18:13.982Z,19.50
2019-01-24T22:20:43.601Z,18.17
2019-01-24T22:23:13.237Z,17.87
2019-01-24T22:25:42.852Z,18.63
2019-01-24T22:28:12.481Z,17.67
2019-01-24T22:30:46.992Z,18.53
2019-01-24T22:33:16.666Z,19.33
2019-01-24T22:35:46.291Z,18.97
2019-01-24T22:38:15.972Z,18.83
2019-01-24T22:40:45.672Z,17.20
2019-01-24T22:43:15.321Z,16.43
2019-01-24T22:45:45.025Z,16.30
2019-01-24T22:48:15.038Z,16.57
2019-01-24T22:50:44.745Z,16.80
2019-01-24T22:53:14.360Z,16.73
2019-01-24T22:55:44.541Z,16.07
2019-01-24T22:58:14.173Z,15.47
2019-01-24T23:01:28.147Z,16.07
2019-01-24T23:04:19.053Z,16.53
2019-01-24T23:06:48.812Z,17.37
2019-01-24T23:09:20.172Z,15.93
2019-01-24T23:11:49.878Z,16.00
2019-01-24T23:14:19.653Z,16.57
2019-01-24T23:16:49.581Z,16.73
2019-01-24T23:19:19.378Z,15.80
2019-01-24T23:21:49.622Z,17.07
2019-01-24T23:24:19.408Z,16.10
2019-01-24T23:26:52.210Z,15.60
2019-01-24T23:29:22.208Z,16.33
2019-01-24T23:31:51.989Z,17.00
2019-01-24T23:34:21.693Z,18.03
2019-01-24T23:36:51.431Z,16.47
2019-01-24T23:39:21.076Z,17.53
2019-01-24T23:41:50.965Z,18.37
2019-01-24T23:44:20.584Z,16.13
2019-01-24T23:46:50.323Z,17.40
2019-01-24T23:49:20.220Z,16.80
2019-01-24T23:51:50.073Z,18.07
2019-01-24T23:54:19.746Z,15.97
2019-01-24T23:56:49.473Z,18.30
2019-01-24T23:59:19.117Z,17.30
